Time;durP1;ratioP1;P1;durP2;ratioP2;P2;SDS_P1;SDS_P2;PMS_P1;PMS_P2;Temp;Humidity;BMP_temperature;BMP_pressure;BME280_temperature;BME280_humidity;BME280_pressure;Samples;Min_cycle;Max_cycle;Signal;HPM_P1;HPM_P2
2022/01/05 00:01:06;;;;;;;24.57;19.73;;;;;;;4.18;78.98;92222.63;5047612;28;20233;-78
2022/01/05 00:03:32;;;;;;;21.50;19.40;;;;;;;4.39;78.92;92248.34;5046564;28;20182;-73
2022/01/05 00:05:58;;;;;;;23.10;18.77;;;;;;;4.11;79.79;92240.94;5044462;28;20282;-78
2022/01/05 00:08:25;;;;;;;19.73;17.63;;;;;;;3.99;81.86;92245.50;5048457;28;20186;-77
2022/01/05 00:10:54;;;;;;;20.00;16.47;;;;;;;4.13;79.68;92238.88;5044446;28;20229;-77
2022/01/05 00:13:20;;;;;;;18.43;16.27;;;;;;;4.03;79.91;92225.13;5049186;28;20217;-78
2022/01/05 00:15:46;;;;;;;22.50;18.43;;;;;;;3.90;80.87;92228.13;5044351;28;20249;-78
2022/01/05 00:18:12;;;;;;;20.77;18.73;;;;;;;4.27;79.12;92254.72;5046683;28;20262;-77
2022/01/05 00:20:37;;;;;;;23.47;18.43;;;;;;;4.39;79.10;92253.50;5047204;28;20305;-77
2022/01/05 00:23:03;;;;;;;21.80;17.87;;;;;;;4.15;79.81;92247.16;5044946;28;20255;-77
2022/01/05 00:25:28;;;;;;;21.27;16.67;;;;;;;4.07;79.53;92224.38;5046603;28;20198;-77
2022/01/05 00:27:54;;;;;;;39.77;25.57;;;;;;;4.00;79.55;92218.63;5047689;28;20178;-78
2022/01/05 00:30:19;;;;;;;30.27;19.93;;;;;;;3.87;80.92;92237.16;5045415;28;20284;-78
2022/01/05 00:32:45;;;;;;;36.23;21.27;;;;;;;3.99;81.06;92236.97;5049056;28;20225;-78
2022/01/05 00:35:10;;;;;;;21.73;18.27;;;;;;;4.13;80.90;92233.72;5046348;28;20198;-76
2022/01/05 00:37:36;;;;;;;24.60;17.97;;;;;;;4.29;79.56;92243.13;5046464;28;20199;-77
2022/01/05 00:40:03;;;;;;;19.57;17.10;;;;;;;4.10;80.06;92239.38;5046946;28;20179;-77
2022/01/05 00:42:29;;;;;;;22.60;18.70;;;;;;;4.19;79.72;92239.69;5043934;28;20228;-77
2022/01/05 00:44:55;;;;;;;22.40;19.47;;;;;;;4.26;79.83;92248.78;5047932;28;20186;-76
2022/01/05 00:47:20;;;;;;;29.03;22.10;;;;;;;4.27;79.45;92252.94;5044255;28;20232;-77
2022/01/05 00:49:46;;;;;;;27.03;19.43;;;;;;;4.15;79.77;92241.22;5026867;28;20269;-77
2022/01/05 00:52:12;;;;;;;23.87;19.17;;;;;;;4.19;78.80;92221.59;5047136;28;20225;-77
2022/01/05 00:54:38;;;;;;;24.53;19.70;;;;;;;4.21;78.94;92246.19;5045260;28;20239;-77
2022/01/05 00:57:03;;;;;;;31.23;22.30;;;;;;;3.95;80.53;92215.25;5046417;28;20236;-77
2022/01/05 00:59:29;;;;;;;45.17;26.10;;;;;;;4.19;79.76;92243.06;5046156;28;20178;-78
2022/01/05 01:01:54;;;;;;;33.50;21.13;;;;;;;4.11;80.94;92235.00;5043835;28;20293;-78
2022/01/05 01:04:20;;;;;;;24.87;18.90;;;;;;;4.22;79.70;92242.56;5049296;28;20197;-77
2022/01/05 01:06:45;;;;;;;31.53;22.30;;;;;;;4.30;79.63;92224.00;5026357;28;20214;-77
2022/01/05 01:09:11;;;;;;;47.63;27.27;;;;;;;3.82;79.48;92151.13;5046546;28;20216;-77
2022/01/05 01:11:36;;;;;;;51.00;28.37;;;;;;;4.18;79.90;92195.00;5047066;28;20234;-77
2022/01/05 01:14:02;;;;;;;61.20;34.10;;;;;;;4.27;79.60;92196.09;5045528;28;20201;-77
2022/01/05 01:16:27;;;;;;;38.80;26.00;;;;;;;4.40;79.28;92224.06;5045651;28;20226;-77
2022/01/05 01:18:53;;;;;;;36.73;25.53;;;;;;;4.15;80.44;92220.56;5046832;28;20178;-77
2022/01/05 01:21:18;;;;;;;46.10;27.07;;;;;;;4.11;79.44;92201.44;5044708;28;20284;-77
2022/01/05 01:23:54;;;;;;;64.10;33.30;;;;;;;3.84;81.34;92204.09;5046275;28;20190;-77
2022/01/05 01:26:21;;;;;;;43.50;26.00;;;;;;;3.79;81.42;92185.19;5046987;28;21142;-77
2022/01/05 01:28:47;;;;;;;95.37;42.50;;;;;;;4.35;79.56;92225.84;5043059;28;20194;-77
2022/01/05 01:31:12;;;;;;;112.20;45.20;;;;;;;4.18;79.98;92231.19;5028613;28;20704;-78
2022/01/05 01:33:38;;;;;;;78.60;36.33;;;;;;;4.32;80.31;92221.97;5045849;28;20198;-79
2022/01/05 01:36:03;;;;;;;109.00;46.83;;;;;;;4.05;80.96;92215.31;5045527;28;20210;-78
2022/01/05 01:38:29;;;;;;;81.53;36.97;;;;;;;3.82;82.53;92208.72;5046428;28;20182;-78
2022/01/05 01:40:54;;;;;;;84.50;37.43;;;;;;;4.16;81.28;92216.94;5042008;28;20225;-77
2022/01/05 01:43:20;;;;;;;52.80;28.57;;;;;;;3.93;82.00;92192.28;5046903;28;20166;-78
2022/01/05 01:45:45;;;;;;;156.03;47.73;;;;;;;4.37;79.79;92209.03;5045139;28;20309;-77
2022/01/05 01:48:11;;;;;;;74.97;38.07;;;;;;;4.14;80.32;92193.94;5045293;28;20186;-78
2022/01/05 01:50:36;;;;;;;90.57;41.63;;;;;;;4.44;79.48;92207.03;5047183;28;20240;-77
2022/01/05 01:53:02;;;;;;;68.03;33.20;;;;;;;4.11;80.67;92207.34;5046377;28;20197;-78
2022/01/05 01:55:28;;;;;;;31.87;22.43;;;;;;;4.01;82.03;92199.56;5043853;28;20194;-78
2022/01/05 01:57:54;;;;;;;47.47;28.77;;;;;;;4.15;80.20;92203.25;5045925;28;20194;-78
2022/01/05 02:00:21;;;;;;;36.13;24.57;;;;;;;3.72;82.41;92206.03;5044971;28;20217;-77
2022/01/05 02:02:46;;;;;;;27.23;22.83;;;;;;;4.00;81.47;92213.47;5044543;28;20197;-77
2022/01/05 02:05:12;;;;;;;23.57;20.20;;;;;;;3.73;80.85;92176.63;5045469;28;20186;-78
2022/01/05 02:07:37;;;;;;;22.77;19.30;;;;;;;4.07;81.09;92203.72;5042858;28;20186;-78
2022/01/05 02:10:05;;;;;;;19.30;16.50;;;;;;;4.08;80.62;92205.28;5045955;28;20197;-77
2022/01/05 02:12:31;;;;;;;33.00;23.70;;;;;;;3.55;82.90;92166.69;5030415;28;20221;-78
2022/01/05 02:14:56;;;;;;;22.43;17.17;;;;;;;4.02;81.19;92195.94;5046808;28;20190;-78
2022/01/05 02:17:30;;;;;;;27.37;19.70;;;;;;;3.74;82.79;92187.72;5045257;28;20218;-79
2022/01/05 02:19:55;;;;;;;21.87;16.27;;;;;;;3.95;80.69;92173.94;5029061;28;20216;-78
2022/01/05 02:22:21;;;;;;;21.70;19.27;;;;;;;3.70;83.16;92179.72;5046644;28;20261;-77
2022/01/05 02:24:48;;;;;;;40.17;27.27;;;;;;;3.92;81.62;92200.25;5047171;28;20250;-77
2022/01/05 02:27:16;;;;;;;44.20;28.67;;;;;;;3.75;82.29;92190.06;5045183;28;20224;-77
2022/01/05 02:29:42;;;;;;;39.43;25.83;;;;;;;3.79;82.46;92173.06;5046279;28;20197;-78
2022/01/05 02:32:07;;;;;;;102.47;50.77;;;;;;;3.84;82.42;92191.19;5046354;28;20230;-78
2022/01/05 02:34:33;;;;;;;44.50;25.20;;;;;;;4.03;81.44;92187.16;5050547;28;20202;-78
2022/01/05 02:36:58;;;;;;;68.70;35.47;;;;;;;3.95;81.52;92187.66;5049645;28;20218;-78
2022/01/05 02:39:24;;;;;;;36.27;22.73;;;;;;;4.01;81.75;92184.06;5049473;28;20194;-78
2022/01/05 02:41:50;;;;;;;48.67;28.23;;;;;;;3.84;82.82;92178.28;5031661;28;20230;-78
2022/01/05 02:44:15;;;;;;;104.97;46.47;;;;;;;3.72;81.85;92141.50;5050195;28;20213;-78
2022/01/05 02:46:41;;;;;;;58.80;40.87;;;;;;;4.14;81.71;92168.09;5048520;28;20331;-78
2022/01/05 02:49:06;;;;;;;19.77;17.43;;;;;;;3.98;81.00;92153.56;5051122;28;20283;-77
2022/01/05 02:51:32;;;;;;;20.93;17.80;;;;;;;3.75;81.52;92153.91;5048825;28;20237;-78
2022/01/05 02:53:57;;;;;;;23.83;20.80;;;;;;;3.73;82.74;92156.00;5050306;28;20198;-78
2022/01/05 02:56:23;;;;;;;18.13;16.23;;;;;;;4.10;80.92;92151.56;5047772;28;20222;-78
2022/01/05 02:58:48;;;;;;;29.03;23.83;;;;;;;3.89;81.98;92147.31;5046586;28;20198;-78
2022/01/05 03:01:14;;;;;;;24.47;18.83;;;;;;;3.69;82.08;92138.69;5049313;28;20230;-78
2022/01/05 03:03:40;;;;;;;19.50;17.30;;;;;;;3.78;81.58;92156.03;5033191;28;20186;-78
2022/01/05 03:06:06;;;;;;;18.80;17.00;;;;;;;3.66;82.37;92155.41;5048591;28;20741;-77
2022/01/05 03:08:31;;;;;;;17.90;16.00;;;;;;;3.74;81.33;92170.44;5050259;28;20190;-77
2022/01/05 03:10:57;;;;;;;19.23;17.00;;;;;;;3.18;83.98;92135.69;5045193;28;20225;-77
2022/01/05 03:13:25;;;;;;;19.60;15.27;;;;;;;3.49;84.48;92151.44;5048638;28;20206;-76
2022/01/05 03:15:52;;;;;;;15.47;13.97;;;;;;;3.62;81.64;92136.31;5049375;28;20840;-78
2022/01/05 03:18:18;;;;;;;17.17;15.50;;;;;;;3.42;83.19;92138.75;5048457;28;20213;-77
2022/01/05 03:20:45;;;;;;;20.47;18.50;;;;;;;3.79;82.49;92167.13;5049182;28;20302;-78
2022/01/05 03:23:11;;;;;;;18.57;16.67;;;;;;;3.55;83.43;92158.19;5049660;28;20247;-77
2022/01/05 03:25:39;;;;;;;17.67;15.87;;;;;;;3.53;82.81;92150.69;5044507;28;20233;-78
2022/01/05 03:28:05;;;;;;;17.57;15.87;;;;;;;3.49;83.86;92157.34;5049546;28;20189;-78
2022/01/05 03:30:31;;;;;;;14.90;13.60;;;;;;;3.69;82.96;92165.25;5049327;28;20238;-78
2022/01/05 03:35:31;;;;;;;18.40;16.53;;;;;;;3.67;81.73;92138.13;5049754;28;20193;-78
2022/01/05 03:37:58;;;;;;;18.33;15.80;;;;;;;3.65;82.97;92159.03;5049291;28;20196;-77
2022/01/05 03:40:25;;;;;;;23.30;17.70;;;;;;;3.30;83.63;92133.72;5030492;28;20190;-77
2022/01/05 03:42:51;;;;;;;17.43;15.53;;;;;;;3.62;84.04;92154.38;5050029;28;20205;-77
2022/01/05 03:45:16;;;;;;;16.87;15.33;;;;;;;3.88;82.36;92152.72;5047687;28;20253;-75
2022/01/05 03:47:42;;;;;;;15.90;13.77;;;;;;;3.86;81.38;92150.38;5048228;28;20256;-76
2022/01/05 03:50:08;;;;;;;18.27;15.77;;;;;;;3.66;82.16;92150.25;5047549;28;20245;-75
2022/01/05 03:52:34;;;;;;;16.53;14.93;;;;;;;3.25;82.63;92112.28;5047517;28;20214;-75
2022/01/05 03:55:00;;;;;;;16.50;15.13;;;;;;;3.71;81.69;92158.03;5049380;28;20244;-75
2022/01/05 03:57:26;;;;;;;17.00;15.37;;;;;;;3.57;81.26;92125.16;5046590;28;20222;-75
2022/01/05 03:59:53;;;;;;;20.23;17.00;;;;;;;3.70;82.08;92160.88;5045884;28;20218;-75
2022/01/05 04:02:19;;;;;;;17.63;15.93;;;;;;;3.46;82.35;92152.69;5047064;28;20298;-76
2022/01/05 04:04:46;;;;;;;17.40;15.73;;;;;;;3.54;82.11;92134.19;5048991;28;20202;-76
2022/01/05 04:07:11;;;;;;;18.87;16.43;;;;;;;3.41;83.15;92147.47;5045839;28;20241;-75
2022/01/05 04:09:37;;;;;;;17.63;15.47;;;;;;;3.23;84.28;92128.00;5046885;28;20186;-75
2022/01/05 04:12:02;;;;;;;19.00;17.10;;;;;;;3.12;85.22;92133.31;5045530;28;20222;-75
2022/01/05 04:14:28;;;;;;;18.17;16.33;;;;;;;3.13;84.54;92117.59;5046756;28;20212;-75
2022/01/05 04:16:53;;;;;;;20.77;18.57;;;;;;;3.50;84.51;92140.88;5048405;28;20228;-75
2022/01/05 04:19:19;;;;;;;19.80;16.47;;;;;;;3.23;84.21;92099.66;5046109;28;20201;-75
2022/01/05 04:21:47;;;;;;;17.90;16.03;;;;;;;3.22;83.54;92092.16;5045916;28;20242;-75
2022/01/05 04:24:12;;;;;;;18.30;16.50;;;;;;;3.45;84.18;92120.19;5045927;28;20769;-76
2022/01/05 04:26:38;;;;;;;17.23;15.53;;;;;;;3.53;83.96;92130.06;5046390;28;20230;-75
2022/01/05 04:29:03;;;;;;;17.93;15.17;;;;;;;3.70;82.07;92120.34;5048740;28;20187;-75
2022/01/05 04:31:29;;;;;;;19.90;16.30;;;;;;;3.20;83.42;92083.88;5045250;28;20233;-75
2022/01/05 04:33:54;;;;;;;18.50;16.70;;;;;;;3.16;83.27;92057.00;5047603;28;20198;-75
2022/01/05 04:36:20;;;;;;;20.03;17.93;;;;;;;3.49;81.43;92090.28;5045886;28;20220;-75
2022/01/05 04:38:45;;;;;;;19.33;17.27;;;;;;;3.40;83.37;92124.50;5043415;28;20198;-74
2022/01/05 04:41:11;;;;;;;17.33;15.53;;;;;;;2.88;84.97;92096.75;5047560;28;20231;-75
2022/01/05 04:43:36;;;;;;;16.33;14.67;;;;;;;2.65;86.37;92098.84;5046620;28;21683;-75
2022/01/05 04:46:02;;;;;;;17.03;14.53;;;;;;;3.07;85.24;92121.16;5047148;28;20292;-75
2022/01/05 04:48:27;;;;;;;18.93;16.87;;;;;;;3.19;84.53;92129.50;5046414;28;20192;-75
2022/01/05 04:50:53;;;;;;;16.80;15.10;;;;;;;2.82;85.57;92112.41;5042421;28;20233;-75
2022/01/05 04:53:18;;;;;;;17.67;15.77;;;;;;;3.23;84.50;92135.75;5047279;28;20194;-78
2022/01/05 04:55:44;;;;;;;17.73;16.00;;;;;;;2.88;85.96;92137.25;5044195;28;20264;-77
2022/01/05 04:58:10;;;;;;;19.07;16.03;;;;;;;3.12;85.28;92135.91;5046201;28;20202;-77
2022/01/05 05:00:35;;;;;;;16.67;14.97;;;;;;;2.82;85.89;92107.25;5047366;28;20237;-77
2022/01/05 05:03:01;;;;;;;18.57;16.77;;;;;;;3.11;85.53;92145.44;5045783;28;20235;-79
2022/01/05 05:05:27;;;;;;;22.07;17.37;;;;;;;3.08;85.63;92127.13;5047135;28;20257;-80
2022/01/05 05:07:52;;;;;;;18.77;16.87;;;;;;;3.30;84.75;92151.00;5046654;28;20178;-78
2022/01/05 05:10:18;;;;;;;18.63;16.77;;;;;;;3.39;84.70;92151.34;5047611;28;20268;-76
2022/01/05 05:12:43;;;;;;;25.57;18.03;;;;;;;3.35;83.96;92160.59;5046022;28;20201;-77
2022/01/05 05:15:09;;;;;;;20.23;16.80;;;;;;;3.46;83.53;92163.00;5045179;28;20194;-79
2022/01/05 05:17:35;;;;;;;19.77;17.77;;;;;;;3.44;82.73;92151.38;5047684;28;20244;-77
2022/01/05 05:20:00;;;;;;;20.53;17.00;;;;;;;3.14;84.06;92155.25;5044465;28;20337;-88
2022/01/05 05:22:26;;;;;;;21.63;18.37;;;;;;;3.47;83.35;92172.28;5045086;28;20246;-77
2022/01/05 05:24:51;;;;;;;22.60;18.73;;;;;;;3.38;83.04;92152.38;5047357;28;20194;-81
2022/01/05 05:27:17;;;;;;;24.40;18.67;;;;;;;3.60;82.53;92177.06;5045295;28;20226;-77
2022/01/05 05:29:42;;;;;;;20.77;17.67;;;;;;;3.65;81.80;92178.88;5048353;28;20190;-81
2022/01/05 05:32:09;;;;;;;20.53;18.43;;;;;;;3.48;82.96;92186.78;5045312;28;20226;-79
2022/01/05 05:34:34;;;;;;;21.77;18.53;;;;;;;3.17;83.64;92185.72;5047975;28;20664;-83
2022/01/05 05:37:00;;;;;;;20.53;18.47;;;;;;;2.80;85.50;92161.63;5042863;28;20214;-80
2022/01/05 05:39:25;;;;;;;25.07;17.80;;;;;;;2.96;86.71;92170.28;5046467;28;20207;-80
2022/01/05 05:41:51;;;;;;;20.90;17.37;;;;;;;3.19;84.54;92170.78;5043783;28;20229;-78
2022/01/05 05:44:16;;;;;;;19.60;17.57;;;;;;;2.92;85.14;92174.38;5045713;28;20192;-80
2022/01/05 05:46:42;;;;;;;17.57;15.70;;;;;;;2.64;86.40;92177.97;5045571;28;20210;-80
2022/01/05 05:49:07;;;;;;;18.73;16.83;;;;;;;2.74;84.10;92143.81;5044028;28;20335;-77
2022/01/05 05:51:32;;;;;;;21.00;17.43;;;;;;;2.71;85.79;92185.50;5045348;28;20217;-77
2022/01/05 05:53:58;;;;;;;20.30;17.47;;;;;;;2.60;86.78;92183.84;5046185;28;20194;-78
2022/01/05 05:56:23;;;;;;;20.17;17.97;;;;;;;2.86;86.26;92181.28;5044905;28;20233;-77
2022/01/05 05:58:49;;;;;;;24.20;18.40;;;;;;;2.61;86.64;92168.16;5043940;28;20179;-77
2022/01/05 06:01:15;;;;;;;22.33;20.00;;;;;;;2.70;86.15;92178.78;5045482;28;20230;-77
2022/01/05 06:03:40;;;;;;;27.50;20.07;;;;;;;2.39;87.44;92164.78;5048697;28;20250;-77
2022/01/05 06:06:06;;;;;;;35.87;23.33;;;;;;;2.72;86.46;92179.34;5047702;28;20222;-78
2022/01/05 06:08:31;;;;;;;21.20;17.77;;;;;;;2.69;87.26;92170.25;5050544;28;20194;-78
2022/01/05 06:10:57;;;;;;;22.80;19.23;;;;;;;2.87;85.14;92180.28;5049733;28;20295;-78
2022/01/05 06:13:22;;;;;;;26.77;20.00;;;;;;;2.73;85.92;92147.38;5050598;28;20186;-79
2022/01/05 06:15:47;;;;;;;24.60;21.53;;;;;;;2.52;86.20;92148.97;5050985;28;20249;-79
2022/01/05 06:18:13;;;;;;;30.07;22.17;;;;;;;2.73;85.61;92176.50;5049766;28;20202;-78
2022/01/05 06:20:38;;;;;;;29.40;21.23;;;;;;;2.80;86.78;92182.25;5052140;28;20229;-79
2022/01/05 06:23:04;;;;;;;24.53;22.00;;;;;;;2.56;86.12;92180.97;5050115;28;21205;-79
2022/01/05 06:25:29;;;;;;;25.07;21.70;;;;;;;2.41;86.54;92156.81;5050556;28;20198;-78
2022/01/05 06:27:55;;;;;;;22.77;20.27;;;;;;;2.62;87.12;92179.22;5050574;28;20186;-79
2022/01/05 06:30:20;;;;;;;22.23;19.27;;;;;;;2.42;86.86;92158.38;5031176;28;20277;-79
2022/01/05 06:32:46;;;;;;;23.97;21.40;;;;;;;3.06;85.39;92207.28;5050909;28;20208;-79
2022/01/05 06:35:14;;;;;;;24.47;20.60;;;;;;;3.12;84.36;92190.06;5049838;28;20198;-78
2022/01/05 06:37:40;;;;;;;27.60;20.60;;;;;;;3.06;85.92;92201.34;5050753;28;20202;-80
2022/01/05 06:40:06;;;;;;;26.37;21.10;;;;;;;3.03;84.14;92165.72;5051349;28;20190;-79
2022/01/05 06:42:31;;;;;;;30.10;20.70;;;;;;;3.21;84.51;92188.59;5047947;28;20221;-78
2022/01/05 06:44:57;;;;;;;23.23;20.80;;;;;;;2.89;85.37;92151.66;5033382;28;20208;-78
2022/01/05 06:47:22;;;;;;;31.30;23.63;;;;;;;3.08;84.61;92165.78;5048190;28;20275;-78
2022/01/05 06:49:48;;;;;;;33.03;21.87;;;;;;;3.31;84.64;92204.16;5049755;28;20213;-78
2022/01/05 06:52:13;;;;;;;20.40;18.23;;;;;;;3.47;84.81;92203.25;5047933;28;20240;-79
2022/01/05 06:54:40;;;;;;;25.47;19.57;;;;;;;3.57;83.90;92205.94;5050321;28;20261;-78
2022/01/05 06:57:06;;;;;;;22.30;20.00;;;;;;;3.58;84.33;92199.72;5049850;28;20407;-79
2022/01/05 06:59:31;;;;;;;21.53;19.20;;;;;;;3.60;84.87;92202.84;5047754;28;20216;-79
2022/01/05 07:01:57;;;;;;;20.97;18.57;;;;;;;3.55;83.87;92171.84;5050811;28;20229;-80
2022/01/05 07:04:22;;;;;;;24.17;18.90;;;;;;;3.62;83.63;92169.84;5048735;28;20201;-80
2022/01/05 07:06:48;;;;;;;28.70;23.17;;;;;;;3.83;83.01;92192.19;5049811;28;20226;-78
2022/01/05 07:09:13;;;;;;;29.97;22.53;;;;;;;3.89;83.65;92198.19;5048540;28;20198;-79
2022/01/05 07:11:40;;;;;;;38.03;24.53;;;;;;;3.91;82.62;92194.31;5047176;28;20297;-78
2022/01/05 07:14:05;;;;;;;33.70;24.37;;;;;;;3.82;83.02;92200.19;5050355;28;20185;-78
2022/01/05 07:16:31;;;;;;;33.97;23.63;;;;;;;3.79;83.44;92167.91;5048904;28;20222;-79
2022/01/05 07:18:56;;;;;;;29.43;21.43;;;;;;;3.88;83.51;92189.66;5050068;28;21364;-77
2022/01/05 07:21:22;;;;;;;28.23;21.80;;;;;;;4.07;82.91;92195.19;5049716;28;20242;-78
2022/01/05 07:23:47;;;;;;;28.30;22.30;;;;;;;4.25;82.10;92208.47;5050450;28;20202;-77
2022/01/05 07:26:13;;;;;;;25.73;21.43;;;;;;;4.14;82.43;92182.84;5048969;28;20233;-78
2022/01/05 07:28:38;;;;;;;29.13;21.63;;;;;;;4.30;81.50;92194.81;5031983;28;20261;-78
2022/01/05 07:31:04;;;;;;;28.77;21.53;;;;;;;4.46;81.61;92197.22;5049512;28;20273;-78
2022/01/05 07:33:29;;;;;;;22.07;19.70;;;;;;;4.37;81.11;92177.28;5048248;28;20210;-78
2022/01/05 07:35:55;;;;;;;26.20;21.40;;;;;;;4.65;80.56;92211.25;5049907;28;20842;-81
2022/01/05 07:38:20;;;;;;;28.10;21.67;;;;;;;4.78;80.31;92217.78;5048316;28;20221;-85
2022/01/05 07:40:46;;;;;;;22.30;19.77;;;;;;;4.63;80.91;92187.47;5031753;28;20231;-90
2022/01/05 07:43:11;;;;;;;23.30;20.20;;;;;;;4.71;80.36;92215.44;5048943;28;20209;-82
2022/01/05 07:45:37;;;;;;;25.70;19.13;;;;;;;4.81;79.73;92184.44;5045801;28;20229;-83
2022/01/05 07:48:04;;;;;;;21.00;18.77;;;;;;;5.04;78.68;92197.97;5049708;28;20200;-80
2022/01/05 07:50:29;;;;;;;25.87;17.77;;;;;;;5.25;78.06;92215.06;5047513;28;20206;-86
2022/01/05 07:52:54;;;;;;;26.90;20.17;;;;;;;5.10;78.32;92213.25;5048733;28;20186;-86
2022/01/05 07:55:20;;;;;;;26.67;19.77;;;;;;;4.96;78.81;92201.81;5049444;28;20198;-87
2022/01/05 07:57:45;;;;;;;22.17;18.70;;;;;;;5.06;78.06;92193.31;5047993;28;20839;-87
2022/01/05 08:00:11;;;;;;;24.30;19.13;;;;;;;5.23;77.40;92206.81;5049360;28;20585;-83
2022/01/05 08:02:37;;;;;;;27.17;19.47;;;;;;;5.42;76.87;92215.63;5048879;28;20182;-87
2022/01/05 08:05:03;;;;;;;22.80;18.60;;;;;;;5.37;77.04;92220.81;5049988;28;20190;-91
2022/01/05 08:07:28;;;;;;;22.87;19.73;;;;;;;5.69;75.65;92205.81;5049281;28;20228;-85
2022/01/05 08:09:54;;;;;;;23.30;20.40;;;;;;;5.79;75.27;92224.72;5049656;28;20194;-83
2022/01/05 08:12:19;;;;;;;25.83;19.13;;;;;;;5.85;74.74;92215.19;5049164;28;20226;-79
2022/01/05 08:14:45;;;;;;;25.27;20.53;;;;;;;5.70;75.15;92202.19;5042945;28;20194;-81
2022/01/05 08:17:10;;;;;;;25.10;19.03;;;;;;;5.90;74.41;92207.44;5048249;28;20222;-81
2022/01/05 08:19:36;;;;;;;25.73;16.90;;;;;;;5.85;74.67;92225.56;5046326;28;20227;-78
2022/01/05 08:22:01;;;;;;;19.10;17.20;;;;;;;5.77;74.38;92202.72;5046599;28;20233;-77
2022/01/05 08:24:27;;;;;;;25.20;18.30;;;;;;;6.11;73.71;92221.91;5046914;28;20193;-81
2022/01/05 08:26:53;;;;;;;19.60;16.87;;;;;;;6.14;72.77;92204.03;5046604;28;20218;-80
2022/01/05 08:29:18;;;;;;;20.60;18.17;;;;;;;6.37;71.78;92213.06;5048306;28;20222;-81
2022/01/05 08:31:44;;;;;;;18.10;16.47;;;;;;;6.21;72.06;92216.72;5044528;28;20225;-80
2022/01/05 08:34:10;;;;;;;16.90;15.40;;;;;;;6.20;71.19;92222.94;5045834;28;20218;-80
2022/01/05 08:36:36;;;;;;;18.93;16.97;;;;;;;6.27;71.88;92211.25;5047871;28;20229;-79
2022/01/05 08:39:02;;;;;;;19.20;17.30;;;;;;;6.41;71.30;92207.09;5046616;28;20187;-79
2022/01/05 08:41:28;;;;;;;18.63;16.63;;;;;;;6.18;70.76;92162.81;5047038;28;20285;-80
2022/01/05 08:43:54;;;;;;;22.67;16.37;;;;;;;6.45;70.72;92204.75;5045897;28;20193;-79
2022/01/05 08:46:20;;;;;;;19.03;17.13;;;;;;;6.45;70.35;92204.75;5047177;28;20221;-79
2022/01/05 08:48:45;;;;;;;18.13;15.90;;;;;;;6.45;69.76;92202.94;5044949;28;20198;-79
2022/01/05 08:51:11;;;;;;;19.27;17.37;;;;;;;6.53;69.81;92206.81;5046220;28;20234;-81
2022/01/05 08:53:36;;;;;;;17.97;16.30;;;;;;;6.22;71.00;92174.22;5046809;28;20182;-79
2022/01/05 08:56:02;;;;;;;19.20;17.20;;;;;;;6.47;70.66;92202.69;5045437;28;20218;-79
2022/01/05 08:58:28;;;;;;;19.13;17.23;;;;;;;6.55;69.86;92202.16;5047405;28;20190;-82
2022/01/05 09:00:53;;;;;;;22.07;17.97;;;;;;;6.58;70.28;92204.22;5046922;28;20230;-81
2022/01/05 09:03:19;;;;;;;19.20;17.20;;;;;;;6.75;69.84;92220.25;5046820;28;20201;-79
2022/01/05 09:05:45;;;;;;;20.73;16.03;;;;;;;6.84;68.61;92216.06;5047176;28;20252;-80
2022/01/05 09:08:11;;;;;;;20.03;17.03;;;;;;;6.74;70.49;92203.09;5026947;28;20216;-80
2022/01/05 09:10:38;;;;;;;19.20;17.50;;;;;;;6.78;69.15;92224.09;5047577;28;20230;-76
2022/01/05 09:13:04;;;;;;;18.43;16.63;;;;;;;6.93;68.89;92206.66;5045896;28;20848;-75
2022/01/05 09:15:30;;;;;;;21.30;17.77;;;;;;;6.74;68.34;92166.03;5045560;28;20198;-81
2022/01/05 09:17:55;;;;;;;20.00;18.03;;;;;;;6.90;68.47;92202.00;5047118;28;20178;-76
2022/01/05 09:20:21;;;;;;;21.30;18.57;;;;;;;6.68;69.28;92196.38;5044679;28;20198;-76
2022/01/05 09:22:46;;;;;;;22.40;17.93;;;;;;;6.91;68.24;92208.00;5047449;28;20234;-78
2022/01/05 09:25:18;;;;;;;22.77;18.93;;;;;;;6.90;68.60;92206.41;5045263;28;20190;-76
2022/01/05 09:27:43;;;;;;;28.23;22.60;;;;;;;6.66;69.54;92171.75;5044766;28;20202;-77
2022/01/05 09:30:11;;;;;;;22.80;20.37;;;;;;;6.75;69.64;92178.72;5045945;28;20246;-77
2022/01/05 09:32:38;;;;;;;24.40;21.70;;;;;;;6.95;69.08;92183.84;5045124;28;20293;-77
2022/01/05 09:35:05;;;;;;;20.73;18.70;;;;;;;7.01;68.79;92174.97;5045850;28;20178;-77
2022/01/05 09:37:48;;;;;;;20.00;18.13;;;;;;;7.03;69.43;92180.69;5043639;28;20225;-77
2022/01/05 09:42:57;;;;;;;20.07;17.93;;;;;;;7.31;67.78;92145.47;5051556;28;20221;-78
2022/01/05 09:45:23;;;;;;;19.07;17.13;;;;;;;7.60;66.33;92154.88;5047441;28;20190;-76
2022/01/05 09:48:10;;;;;;;19.70;17.70;;;;;;;7.68;65.61;92161.31;5049998;28;20201;-77
2022/01/05 09:50:56;;;;;;;20.90;17.83;;;;;;;7.73;66.08;92159.47;5047787;28;20230;-78
2022/01/05 09:53:24;;;;;;;16.80;14.87;;;;;;;7.70;65.08;92144.44;5048357;28;20257;-79
2022/01/05 09:55:51;;;;;;;19.27;15.60;;;;;;;7.77;64.58;92163.06;5049132;28;20271;-76
2022/01/05 09:58:21;;;;;;;23.30;16.17;;;;;;;7.69;65.86;92161.06;5029096;28;20281;-78
2022/01/05 10:00:49;;;;;;;18.33;16.53;;;;;;;7.59;66.22;92145.56;5051152;28;20229;-78
2022/01/05 10:03:14;;;;;;;24.63;15.50;;;;;;;7.71;65.38;92140.78;5048934;28;20201;-78
2022/01/05 10:05:44;;;;;;;18.30;16.50;;;;;;;7.86;64.78;92158.84;5051036;28;20247;-78
2022/01/05 10:08:11;;;;;;;17.90;15.70;;;;;;;7.70;65.47;92135.84;5050364;28;20193;-78
2022/01/05 10:10:36;;;;;;;17.50;15.47;;;;;;;7.72;65.93;92142.31;5048034;28;20265;-78
2022/01/05 10:13:02;;;;;;;18.27;16.27;;;;;;;7.80;65.99;92146.94;5050675;28;20208;-78
2022/01/05 10:15:28;;;;;;;19.83;16.30;;;;;;;7.84;65.21;92141.97;5046560;28;20202;-78
2022/01/05 10:18:17;;;;;;;18.03;16.13;;;;;;;8.07;64.91;92131.63;5051463;28;20240;-79
2022/01/05 10:20:55;;;;;;;17.87;16.07;;;;;;;7.99;65.17;92134.03;5050679;28;20229;-78
2022/01/05 10:23:37;;;;;;;19.53;17.37;;;;;;;8.09;65.76;92137.31;5046758;28;20222;-78
2022/01/05 10:26:24;;;;;;;18.63;15.10;;;;;;;8.31;64.45;92134.28;5050450;28;20253;-78
2022/01/05 10:28:56;;;;;;;16.03;14.47;;;;;;;8.43;62.42;92116.47;5048025;28;20281;-78
2022/01/05 10:31:25;;;;;;;15.43;14.03;;;;;;;8.31;62.10;92081.50;5049195;28;20236;-76
2022/01/05 10:33:51;;;;;;;15.70;14.20;;;;;;;8.51;62.54;92122.88;5050691;28;20201;-78
2022/01/05 10:36:17;;;;;;;16.63;14.80;;;;;;;8.61;62.12;92120.16;5047260;28;20222;-81
2022/01/05 10:38:58;;;;;;;17.77;16.03;;;;;;;8.66;62.15;92110.47;5049954;28;20202;-76
2022/01/05 10:41:28;;;;;;;20.40;15.97;;;;;;;8.62;62.38;92109.50;5049562;28;20289;-75
2022/01/05 10:44:11;;;;;;;22.57;18.47;;;;;;;8.60;63.19;92095.19;5046749;28;21146;-77
2022/01/05 10:46:42;;;;;;;18.70;16.93;;;;;;;8.73;62.26;92099.72;5047836;28;20222;-79
2022/01/05 10:49:08;;;;;;;17.10;15.50;;;;;;;8.71;62.55;92086.22;5046460;28;20243;-78
2022/01/05 10:51:35;;;;;;;18.10;15.97;;;;;;;8.97;61.34;92101.22;5048663;28;20233;-78
2022/01/05 10:54:18;;;;;;;15.97;14.27;;;;;;;8.71;60.77;92060.97;5049451;28;20201;-79
2022/01/05 10:56:44;;;;;;;15.00;13.40;;;;;;;8.90;60.12;92098.19;5047700;28;20218;-79
2022/01/05 10:59:14;;;;;;;16.83;15.10;;;;;;;9.06;60.05;92101.38;5049291;28;20182;-79
2022/01/05 11:01:41;;;;;;;17.30;15.47;;;;;;;8.89;60.43;92077.66;5046864;28;20222;-78
2022/01/05 11:04:21;;;;;;;31.57;19.97;;;;;;;9.06;60.91;92089.13;5048146;28;20200;-78
2022/01/05 11:07:04;;;;;;;19.60;17.87;;;;;;;8.97;61.18;92077.81;5048481;28;20221;-78
2022/01/05 11:09:33;;;;;;;20.47;18.63;;;;;;;8.99;60.78;92072.31;5028641;28;20225;-79
2022/01/05 11:11:59;;;;;;;21.43;19.20;;;;;;;9.06;61.05;92090.94;5046630;28;20233;-78
2022/01/05 11:14:29;;;;;;;21.13;18.70;;;;;;;9.03;62.15;92078.50;5032252;28;20186;-78
2022/01/05 11:16:56;;;;;;;18.83;17.10;;;;;;;9.03;61.62;92078.50;5049085;28;20252;-80
2022/01/05 11:19:30;;;;;;;42.20;34.37;;;;;;;9.12;61.93;92082.03;5030804;28;20190;-80
2022/01/05 11:22:12;;;;;;;19.37;17.50;;;;;;;9.23;60.77;92084.19;5044996;28;20241;-79
2022/01/05 11:24:47;;;;;;;19.17;16.70;;;;;;;9.21;61.55;92075.88;5050519;28;20256;-80
2022/01/05 11:27:19;;;;;;;24.03;21.50;;;;;;;9.17;62.97;92063.72;5047194;28;20237;-83